createdAt,value
2018-11-28T00:00:05.100Z,72.039795
2018-11-28T00:00:24.622Z,71.734619
2018-11-28T00:00:45.604Z,70.727539
2018-11-28T00:01:05.353Z,69.610596
2018-11-28T00:01:25.200Z,68.19458
2018-11-28T00:01:45.629Z,67.486572
2018-11-28T00:02:05.288Z,66.473389
2018-11-28T00:02:24.791Z,66.204834
2018-11-28T00:02:45.874Z,66.101074
2018-11-28T00:03:05.875Z,64.990234
2018-11-28T00:03:25.612Z,64.685059
2018-11-28T00:03:46.868Z,64.990234
2018-11-28T00:04:06.522Z,64.581299
2018-11-28T00:04:49.662Z,65.795898
2018-11-28T00:05:13.939Z,67.218018
2018-11-28T00:05:34.943Z,68.939209
2018-11-28T00:05:54.679Z,69.439697
2018-11-28T00:06:14.309Z,69.104004
2018-11-28T00:06:37.016Z,68.096924
2018-11-28T00:06:56.823Z,68.096924
2018-11-28T00:07:18.579Z,67.486572
2018-11-28T00:07:42.956Z,67.993164
2018-11-28T00:08:06.060Z,68.499756
2018-11-28T00:08:29.071Z,68.499756
2018-11-28T00:08:49.301Z,68.87207
2018-11-28T00:09:14.012Z,69.677734
2018-11-28T00:09:35.002Z,69.476318
2018-11-28T00:09:54.806Z,69.677734
2018-11-28T00:10:16.932Z,69.580078
2018-11-28T00:10:37.425Z,69.677734
2018-11-28T00:10:57.355Z,69.885254
2018-11-28T00:11:18.891Z,70.08667
2018-11-28T00:11:43.274Z,69.274902
2018-11-28T00:12:15.794Z,68.969727
2018-11-28T00:12:39.849Z,68.365479
2018-11-28T00:13:01.008Z,69.378662
2018-11-28T00:13:22.989Z,69.445801
2018-11-28T00:13:44.122Z,69.042969
2018-11-28T00:14:05.234Z,68.939209
2018-11-28T00:14:29.502Z,69.445801
2018-11-28T00:14:55.439Z,69.848633
2018-11-28T00:15:23.721Z,69.549561
2018-11-28T00:15:56.550Z,69.244385
2018-11-28T00:16:17.074Z,69.342041
2018-11-28T00:16:37.305Z,68.432617
2018-11-28T00:17:00.331Z,68.841553
2018-11-28T00:17:36.886Z,68.231201
2018-11-28T00:18:14.378Z,68.768311
2018-11-28T00:18:36.507Z,69.549561
2018-11-28T00:18:59.372Z,69.549561
2018-11-28T00:19:24.636Z,69.848633
2018-11-28T00:19:53.332Z,69.042969
2018-11-28T00:20:22.294Z,68.841553
2018-11-28T00:20:49.054Z,68.029785
2018-11-28T00:21:10.833Z,68.737793
2018-11-28T00:21:30.897Z,69.647217
2018-11-28T00:21:50.925Z,68.634033
2018-11-28T00:22:10.908Z,67.626953
2018-11-28T00:22:32.650Z,67.932129
2018-11-28T00:23:03.813Z,68.737793
2018-11-28T00:23:31.563Z,68.939209
2018-11-28T00:23:51.362Z,69.445801
2018-11-28T00:24:11.599Z,70.959473
2018-11-28T00:24:31.538Z,71.569824
2018-11-28T00:24:52.053Z,71.466064
2018-11-28T00:25:20.109Z,71.868896
2018-11-28T00:25:58.772Z,71.77124
2018-11-28T00:26:16.300Z,71.77124
2018-11-28T00:26:36.329Z,71.868896
2018-11-28T00:27:00.820Z,71.77124
2018-11-28T00:27:22.061Z,72.88208
2018-11-28T00:27:46.016Z,72.576904
2018-11-28T00:28:09.538Z,71.063232
2018-11-28T00:28:31.781Z,70.758057
2018-11-28T00:28:56.150Z,70.050049
2018-11-28T00:29:16.339Z,70.050049
2018-11-28T00:29:37.874Z,69.952393
2018-11-28T00:29:58.007Z,70.6604
2018-11-28T00:30:17.978Z,71.77124
2018-11-28T00:30:38.260Z,72.277832
2018-11-28T00:30:57.908Z,72.680664
2018-11-28T00:31:17.959Z,72.784424
2018-11-28T00:31:37.827Z,72.576904
2018-11-28T00:31:57.691Z,72.375488
2018-11-28T00:32:17.669Z,72.277832
2018-11-28T00:32:37.370Z,72.375488
2018-11-28T00:32:57.138Z,72.479248
2018-11-28T00:33:24.016Z,72.680664
2018-11-28T00:33:46.248Z,73.083496
2018-11-28T00:34:13.100Z,71.77124
2018-11-28T00:34:32.692Z,71.868896
2018-11-28T00:34:52.260Z,72.076416
2018-11-28T00:35:11.860Z,72.277832
2018-11-28T00:35:31.435Z,71.264648
2018-11-28T00:35:51.158Z,71.868896
2018-11-28T00:36:10.686Z,72.98584
2018-11-28T00:36:30.239Z,72.076416
2018-11-28T00:36:49.775Z,72.375488
2018-11-28T00:37:09.376Z,72.375488
2018-11-28T00:37:28.916Z,72.680664
2018-11-28T00:37:48.523Z,71.77124
2018-11-28T00:38:08.068Z,71.77124
2018-11-28T00:38:27.603Z,70.050049
2018-11-28T00:38:47.110Z,69.244385
2018-11-28T00:39:06.708Z,68.432617
2018-11-28T00:39:26.359Z,70.758057
2018-11-28T00:39:45.968Z,70.458984
2018-11-28T00:40:10.539Z,69.647217
2018-11-28T00:40:38.968Z,68.634033
2018-11-28T00:41:11.741Z,68.969727
2018-11-28T00:41:31.294Z,69.073486
2018-11-28T00:41:50.926Z,69.750977
2018-11-28T00:42:10.580Z,71.063232
2018-11-28T00:42:30.164Z,69.952393
2018-11-28T00:42:49.706Z,69.647217
2018-11-28T00:43:09.256Z,69.952393
2018-11-28T00:43:28.862Z,69.549561
2018-11-28T00:43:48.388Z,70.153809
2018-11-28T00:44:13.331Z,69.549561
2018-11-28T00:44:32.876Z,70.6604
2018-11-28T00:44:52.386Z,70.758057
2018-11-28T00:45:11.955Z,70.556641
2018-11-28T00:45:31.474Z,71.264648
2018-11-28T00:45:51.006Z,71.66748
2018-11-28T00:46:10.547Z,71.569824
2018-11-28T00:46:30.098Z,71.868896
2018-11-28T00:46:49.738Z,72.277832
2018-11-28T00:47:09.295Z,71.264648
2018-11-28T00:47:28.818Z,71.166992
2018-11-28T00:47:48.359Z,72.076416
2018-11-28T00:48:07.936Z,72.784424
2018-11-28T00:48:27.442Z,72.576904
2018-11-28T00:48:46.952Z,72.576904
2018-11-28T00:49:06.480Z,72.277832
2018-11-28T00:49:26.045Z,72.479248
2018-11-28T00:49:45.561Z,72.479248
2018-11-28T00:50:05.193Z,71.77124
2018-11-28T00:50:25.383Z,71.569824
2018-11-28T00:50:44.937Z,72.174072
2018-11-28T00:51:04.475Z,72.076416
2018-11-28T00:51:23.984Z,71.368408
2018-11-28T00:51:43.508Z,72.98584
2018-11-28T00:52:03.208Z,73.083496
2018-11-28T00:52:22.763Z,72.680664
2018-11-28T00:52:42.373Z,71.166992
2018-11-28T00:53:01.946Z,70.251465
2018-11-28T00:53:21.495Z,72.277832
2018-11-28T00:53:41.047Z,72.375488
2018-11-28T00:54:00.559Z,72.277832
2018-11-28T00:54:20.121Z,69.042969
2018-11-28T00:54:39.700Z,69.140625
2018-11-28T00:54:59.233Z,70.153809
2018-11-28T00:55:18.836Z,71.166992
2018-11-28T00:55:38.544Z,71.77124
2018-11-28T00:55:59.084Z,71.264648
2018-11-28T00:56:18.621Z,71.466064
2018-11-28T00:56:38.159Z,69.647217
2018-11-28T00:56:57.779Z,68.029785
2018-11-28T00:57:17.276Z,67.828369
2018-11-28T00:57:36.871Z,69.244385
2018-11-28T00:57:56.440Z,70.556641
2018-11-28T00:58:15.989Z,69.885254
2018-11-28T00:58:35.504Z,69.274902
2018-11-28T00:58:55.079Z,71.704102
2018-11-28T00:59:14.645Z,72.717285
2018-11-28T00:59:34.252Z,72.98584
2018-11-28T00:59:53.766Z,72.576904
2018-11-28T01:00:13.376Z,70.355225
2018-11-28T01:00:32.922Z,71.868896
2018-11-28T01:00:52.449Z,73.187256
2018-11-28T01:01:11.978Z,73.388672
2018-11-28T01:01:31.485Z,73.590088
2018-11-28T01:01:51.045Z,73.388672
2018-11-28T01:02:10.592Z,73.895264
2018-11-28T01:02:30.078Z,73.895264
2018-11-28T01:02:49.595Z,73.99292
2018-11-28T01:03:09.098Z,74.804688
2018-11-28T01:03:28.697Z,74.298096
2018-11-28T01:03:48.252Z,72.98584
2018-11-28T01:04:07.779Z,73.791504
2018-11-28T01:04:27.326Z,74.603271
2018-11-28T01:04:46.946Z,74.603271
2018-11-28T01:05:06.455Z,74.603271
2018-11-28T01:05:25.994Z,74.603271
2018-11-28T01:05:45.506Z,74.664307
2018-11-28T01:06:05.044Z,74.163818
2018-11-28T01:06:25.671Z,73.962402
2018-11-28T01:06:45.185Z,74.09668
2018-11-28T01:07:04.856Z,74.969482
2018-11-28T01:07:24.381Z,75.073242
2018-11-28T01:07:43.928Z,73.895264
2018-11-28T01:08:03.500Z,74.194336
2018-11-28T01:08:23.057Z,74.401855
2018-11-28T01:08:42.572Z,73.388672
2018-11-28T01:09:03.127Z,74.194336
2018-11-28T01:09:22.655Z,74.700928
2018-11-28T01:09:42.235Z,74.902344
2018-11-28T01:10:01.784Z,75.073242
2018-11-28T01:10:21.296Z,75.170898
2018-11-28T01:10:40.850Z,75.274658
2018-11-28T01:11:00.402Z,75.073242
2018-11-28T01:11:21.011Z,74.56665
2018-11-28T01:11:40.528Z,74.969482
2018-11-28T01:12:00.081Z,75.170898
2018-11-28T01:12:19.726Z,73.657227
2018-11-28T01:12:39.247Z,73.455811
2018-11-28T01:12:58.788Z,74.365234
2018-11-28T01:13:18.325Z,73.486328
2018-11-28T01:13:37.857Z,73.693848
2018-11-28T01:13:57.362Z,73.388672
2018-11-28T01:14:16.954Z,73.083496
2018-11-28T01:14:36.503Z,73.284912
2018-11-28T01:14:56.161Z,73.187256
2018-11-28T01:15:15.751Z,74.298096
2018-11-28T01:15:36.296Z,74.700928
2018-11-28T01:15:55.819Z,74.902344
2018-11-28T01:16:15.349Z,74.603271
2018-11-28T01:16:34.893Z,75.274658
2018-11-28T01:16:54.452Z,75.372314
2018-11-28T01:17:13.973Z,75.476074
2018-11-28T01:17:33.519Z,75.372314
2018-11-28T01:17:53.090Z,73.553467
2018-11-28T01:18:12.637Z,74.194336
2018-11-28T01:18:39.413Z,74.664307
2018-11-28T01:19:00.365Z,74.664307
2018-11-28T01:19:20.452Z,74.871826
2018-11-28T01:19:39.982Z,74.462891
2018-11-28T01:19:59.631Z,74.365234
2018-11-28T01:20:19.165Z,74.664307
2018-11-28T01:20:38.722Z,74.664307
2018-11-28T01:20:58.302Z,73.553467
2018-11-28T01:21:17.827Z,73.99292
2018-11-28T01:21:37.371Z,74.194336
2018-11-28T01:21:56.904Z,73.590088
2018-11-28T01:22:16.434Z,73.693848
2018-11-28T01:22:35.998Z,74.09668
2018-11-28T01:22:55.540Z,72.680664
2018-11-28T01:23:15.075Z,73.99292
2018-11-28T01:23:34.641Z,73.895264
2018-11-28T01:23:54.226Z,72.784424
2018-11-28T01:24:13.811Z,72.680664
2018-11-28T01:24:33.350Z,74.401855
2018-11-28T01:24:52.963Z,75.408936
2018-11-28T01:25:12.515Z,75.274658
2018-11-28T01:25:32.074Z,75.372314
2018-11-28T01:25:51.606Z,74.969482
2018-11-28T01:26:11.148Z,74.871826
2018-11-28T01:26:30.676Z,75.372314
2018-11-28T01:26:50.258Z,74.969482
2018-11-28T01:27:09.893Z,74.462891
2018-11-28T01:27:30.574Z,74.768066
2018-11-28T01:27:50.147Z,72.845459
2018-11-28T01:28:09.668Z,72.88208
2018-11-28T01:28:29.271Z,73.791504
2018-11-28T01:28:48.874Z,74.499512
2018-11-28T01:29:08.512Z,74.603271
2018-11-28T01:29:28.417Z,74.365234
2018-11-28T01:29:49.183Z,74.768066
2018-11-28T01:30:10.083Z,74.664307
2018-11-28T01:30:29.697Z,74.163818
2018-11-28T01:30:49.369Z,73.455811
2018-11-28T01:31:08.958Z,73.858643
2018-11-28T01:31:28.623Z,74.060059
2018-11-28T01:31:48.424Z,74.163818
2018-11-28T01:32:08.270Z,74.969482
2018-11-28T01:32:27.854Z,73.284912
2018-11-28T01:32:47.721Z,73.693848
2018-11-28T01:33:07.465Z,73.895264
2018-11-28T01:33:27.111Z,74.804688
2018-11-28T01:33:46.700Z,73.693848
2018-11-28T01:34:06.293Z,74.401855
2018-11-28T01:34:25.881Z,74.700928
2018-11-28T01:34:45.421Z,74.902344
2018-11-28T01:35:05.074Z,75.512695
2018-11-28T01:35:24.638Z,75.170898
2018-11-28T01:35:44.264Z,75.170898
2018-11-28T01:36:03.834Z,75.170898
2018-11-28T01:36:23.383Z,75.073242
2018-11-28T01:36:42.942Z,75.170898
2018-11-28T01:37:02.531Z,72.845459
2018-11-28T01:37:23.119Z,70.727539
2018-11-28T01:37:42.671Z,71.77124
2018-11-28T01:38:02.224Z,71.77124
2018-11-28T01:38:21.875Z,71.868896
2018-11-28T01:38:41.442Z,71.466064
2018-11-28T01:39:01.109Z,70.355225
2018-11-28T01:39:21.501Z,71.972656
2018-11-28T01:39:41.050Z,73.187256
2018-11-28T01:40:00.615Z,72.375488
2018-11-28T01:40:38.286Z,73.284912
2018-11-28T01:41:30.316Z,71.264648
2018-11-28T01:41:53.122Z,71.972656
2018-11-28T01:42:12.717Z,73.083496
2018-11-28T01:42:32.271Z,71.972656
2018-11-28T01:42:52.343Z,71.063232
2018-11-28T01:43:11.898Z,70.959473
2018-11-28T01:43:31.481Z,70.959473
2018-11-28T01:43:51.061Z,72.479248
2018-11-28T01:44:10.658Z,73.187256
2018-11-28T01:44:31.280Z,73.284912
2018-11-28T01:44:50.902Z,72.784424
2018-11-28T01:45:10.545Z,72.784424
2018-11-28T01:45:30.162Z,73.388672
2018-11-28T01:45:49.772Z,73.99292
2018-11-28T01:46:09.407Z,73.693848
2018-11-28T01:46:29.011Z,74.194336
2018-11-28T01:46:48.547Z,74.298096
2018-11-28T01:47:08.168Z,73.791504
2018-11-28T01:47:27.819Z,72.784424
2018-11-28T01:47:47.474Z,72.98584
2018-11-28T01:48:06.994Z,72.680664
2018-11-28T01:48:26.625Z,72.076416
2018-11-28T01:48:46.243Z,73.486328
2018-11-28T01:49:05.837Z,73.895264
2018-11-28T01:49:25.377Z,74.804688
2018-11-28T01:49:44.914Z,74.902344
2018-11-28T01:50:04.440Z,74.700928
2018-11-28T01:50:24.025Z,74.09668
2018-11-28T01:50:43.542Z,72.88208
2018-11-28T01:51:03.067Z,72.98584
2018-11-28T01:51:23.614Z,71.466064
2018-11-28T01:51:43.153Z,71.166992
2018-11-28T01:52:02.783Z,70.153809
2018-11-28T01:52:22.389Z,69.952393
2018-11-28T01:52:41.914Z,69.750977
2018-11-28T01:53:01.438Z,70.184326
2018-11-28T01:53:21.070Z,71.704102
2018-11-28T01:53:40.601Z,72.717285
2018-11-28T01:54:00.171Z,71.569824
2018-11-28T01:54:19.778Z,71.466064
2018-11-28T01:54:39.349Z,72.174072
2018-11-28T01:54:58.898Z,71.972656
2018-11-28T01:55:18.521Z,72.076416
2018-11-28T01:55:38.085Z,72.576904
2018-11-28T01:55:57.627Z,72.375488
2018-11-28T01:56:17.151Z,71.801758
2018-11-28T01:56:36.708Z,72.576904
2018-11-28T01:56:56.247Z,72.479248
2018-11-28T01:57:15.761Z,71.502686
2018-11-28T01:57:35.314Z,71.704102
2018-11-28T01:57:54.866Z,69.781494
2018-11-28T01:58:14.417Z,69.378662
2018-11-28T01:58:33.938Z,70.288086
2018-11-28T01:58:53.618Z,70.690918
2018-11-28T01:59:14.165Z,70.794678
2018-11-28T01:59:33.756Z,72.717285
2018-11-28T01:59:53.283Z,72.106934
2018-11-28T02:00:12.814Z,70.892334
2018-11-28T02:00:32.410Z,70.892334
2018-11-28T02:00:51.934Z,71.19751
2018-11-28T02:01:11.523Z,73.321533
2018-11-28T02:01:31.073Z,71.600342
2018-11-28T02:01:51.581Z,71.600342
2018-11-28T02:02:11.106Z,69.274902
2018-11-28T02:02:30.648Z,69.378662
2018-11-28T02:02:50.163Z,70.892334
2018-11-28T02:03:09.691Z,70.892334
2018-11-28T02:03:29.268Z,70.593262
2018-11-28T02:03:48.851Z,70.08667
2018-11-28T02:04:08.366Z,70.892334
2018-11-28T02:04:27.897Z,72.509766
2018-11-28T02:04:48.449Z,71.30127
2018-11-28T02:05:08.038Z,71.09375
2018-11-28T02:05:27.650Z,70.288086
2018-11-28T02:05:47.197Z,70.08667
2018-11-28T02:06:06.730Z,70.288086
2018-11-28T02:06:26.284Z,70.385742
2018-11-28T02:06:45.804Z,71.502686
2018-11-28T02:07:05.323Z,70.892334
2018-11-28T02:07:24.855Z,69.580078
2018-11-28T02:07:44.406Z,70.08667
2018-11-28T02:08:03.943Z,70.593262
2018-11-28T02:08:23.446Z,72.613525
2018-11-28T02:08:42.976Z,71.905518
2018-11-28T02:09:02.495Z,72.918701
2018-11-28T02:09:22.068Z,72.509766
2018-11-28T02:09:41.613Z,71.704102
2018-11-28T02:10:01.135Z,70.385742
2018-11-28T02:10:20.727Z,69.177246
2018-11-28T02:10:40.467Z,69.476318
2018-11-28T02:10:59.986Z,69.677734
2018-11-28T02:11:19.562Z,70.184326
2018-11-28T02:11:39.209Z,71.502686
2018-11-28T02:11:58.759Z,72.412109
2018-11-28T02:12:18.347Z,71.30127
2018-11-28T02:12:37.889Z,71.398926
2018-11-28T02:12:57.413Z,71.09375
2018-11-28T02:13:17.005Z,72.106934
2018-11-28T02:13:36.613Z,69.580078
2018-11-28T02:13:56.206Z,69.677734
2018-11-28T02:14:15.752Z,69.274902
2018-11-28T02:14:35.318Z,71.600342
2018-11-28T02:14:55.072Z,72.717285
2018-11-28T02:15:15.723Z,72.918701
2018-11-28T02:15:35.340Z,70.690918
2018-11-28T02:15:54.876Z,70.385742
2018-11-28T02:16:14.451Z,72.918701
2018-11-28T02:16:35.055Z,71.801758
2018-11-28T02:16:54.550Z,72.009277
2018-11-28T02:17:14.099Z,73.626709
2018-11-28T02:17:33.660Z,71.09375
2018-11-28T02:17:53.244Z,69.378662
2018-11-28T02:18:12.802Z,69.677734
2018-11-28T02:18:32.318Z,69.580078
2018-11-28T02:18:51.850Z,70.385742
2018-11-28T02:19:11.390Z,71.600342
2018-11-28T02:19:30.972Z,70.184326
2018-11-28T02:19:50.514Z,68.902588
2018-11-28T02:20:10.201Z,70.727539
2018-11-28T02:20:29.828Z,73.217773
2018-11-28T02:20:49.396Z,73.522949
2018-11-28T02:21:08.959Z,73.425293
2018-11-28T02:21:28.513Z,73.626709
2018-11-28T02:21:48.176Z,73.626709
2018-11-28T02:22:07.734Z,72.918701
2018-11-28T02:22:27.274Z,74.536133
2018-11-28T02:22:46.798Z,74.230957
2018-11-28T02:23:06.329Z,74.633789
2018-11-28T02:23:25.859Z,74.029541
2018-11-28T02:23:45.410Z,73.828125
2018-11-28T02:24:04.935Z,73.522949
2018-11-28T02:24:24.452Z,73.522949
2018-11-28T02:24:44.004Z,73.626709
2018-11-28T02:25:03.544Z,74.029541
2018-11-28T02:25:23.076Z,74.841309
2018-11-28T02:25:42.713Z,74.737549
2018-11-28T02:26:02.239Z,74.334717
2018-11-28T02:26:21.813Z,72.412109
2018-11-28T02:26:41.337Z,73.016357
2018-11-28T02:27:00.853Z,74.633789
2018-11-28T02:27:21.437Z,74.633789
2018-11-28T02:27:40.955Z,74.841309
2018-11-28T02:28:00.534Z,74.938965
2018-11-28T02:28:20.053Z,75.646973
2018-11-28T02:28:39.582Z,75.244141
2018-11-28T02:28:59.200Z,74.737549
2018-11-28T02:29:18.790Z,74.633789
2018-11-28T02:29:38.338Z,74.841309
2018-11-28T02:29:57.893Z,75.244141
2018-11-28T02:30:17.422Z,74.536133
2018-11-28T02:30:36.950Z,75.341797
2018-11-28T02:30:56.539Z,74.029541
2018-11-28T02:31:16.047Z,73.724365
2018-11-28T02:31:35.891Z,74.133301
2018-11-28T02:31:55.454Z,74.334717
2018-11-28T02:32:15.047Z,75.042725
2018-11-28T02:32:34.614Z,75.445557
2018-11-28T02:32:54.184Z,74.432373
2018-11-28T02:33:13.783Z,73.925781
2018-11-28T02:33:33.336Z,72.106934
2018-11-28T02:33:52.948Z,71.600342
2018-11-28T02:34:12.605Z,68.87207
2018-11-28T02:34:32.240Z,71.19751
2018-11-28T02:34:51.861Z,70.08667
2018-11-28T02:35:11.416Z,69.885254
2018-11-28T02:35:31.021Z,72.106934
2018-11-28T02:35:50.638Z,72.009277
2018-11-28T02:36:10.201Z,72.009277
2018-11-28T02:36:29.786Z,72.106934
2018-11-28T02:36:49.331Z,74.230957
2018-11-28T02:37:08.898Z,68.87207
2018-11-28T02:37:28.446Z,69.714355
2018-11-28T02:37:47.980Z,71.704102
2018-11-28T02:38:07.531Z,74.133301
2018-11-28T02:38:27.079Z,74.938965
2018-11-28T02:38:46.657Z,75.848389
2018-11-28T02:39:06.297Z,76.35498
2018-11-28T02:39:25.856Z,75.646973
2018-11-28T02:39:45.412Z,76.153564
2018-11-28T02:40:04.984Z,74.230957
2018-11-28T02:40:24.521Z,72.918701
2018-11-28T02:40:44.092Z,73.120117
2018-11-28T02:41:03.683Z,73.626709
2018-11-28T02:41:23.282Z,72.613525
2018-11-28T02:41:42.942Z,70.489502
2018-11-28T02:42:02.519Z,70.593262
2018-11-28T02:42:22.088Z,73.016357
2018-11-28T02:42:41.669Z,73.217773
2018-11-28T02:43:01.266Z,72.412109
2018-11-28T02:43:20.884Z,73.016357
2018-11-28T02:43:40.445Z,75.140381
2018-11-28T02:43:59.998Z,74.432373
2018-11-28T02:44:19.554Z,74.133301
2018-11-28T02:44:39.122Z,74.938965
2018-11-28T02:44:58.663Z,74.938965
2018-11-28T02:45:18.216Z,75.549316
2018-11-28T02:45:37.747Z,74.938965
2018-11-28T02:45:57.409Z,75.042725
2018-11-28T02:46:17.010Z,75.042725
2018-11-28T02:46:36.676Z,74.432373
2018-11-28T02:46:56.316Z,74.133301
2018-11-28T02:47:15.936Z,73.828125
2018-11-28T02:47:35.493Z,75.848389
2018-11-28T02:47:55.035Z,75.646973
2018-11-28T02:48:14.576Z,75.952148
2018-11-28T02:48:34.114Z,75.006104
2018-11-28T02:48:53.649Z,74.700928
2018-11-28T02:49:13.169Z,74.902344
2018-11-28T02:49:32.699Z,74.499512
2018-11-28T02:49:52.257Z,75.311279
2018-11-28T02:50:11.803Z,76.623535
2018-11-28T02:50:31.342Z,75.915527
2018-11-28T02:50:50.902Z,75.915527
2018-11-28T02:51:10.470Z,73.388672
2018-11-28T02:51:30.051Z,74.194336
2018-11-28T02:51:50.611Z,74.633789
2018-11-28T02:52:10.181Z,76.049805
2018-11-28T02:52:29.703Z,75.915527
2018-11-28T02:52:49.294Z,76.220703
2018-11-28T02:53:08.866Z,76.519775
2018-11-28T02:53:28.402Z,76.824951
2018-11-28T02:53:47.960Z,73.99292
2018-11-28T02:54:07.786Z,74.401855
2018-11-28T02:54:27.314Z,73.284912
2018-11-28T02:54:46.876Z,73.016357
2018-11-28T02:55:06.546Z,74.938965
2018-11-28T02:55:26.087Z,75.445557
2018-11-28T02:55:45.711Z,75.244141
2018-11-28T02:56:05.308Z,75.549316
2018-11-28T02:56:24.833Z,75.848389
2018-11-28T02:56:44.408Z,75.042725
2018-11-28T02:57:03.953Z,75.341797
2018-11-28T02:57:24.472Z,73.724365
2018-11-28T02:57:44.014Z,73.791504
2018-11-28T02:58:03.582Z,73.590088
2018-11-28T02:58:23.177Z,73.388672
2018-11-28T02:58:42.722Z,71.600342
2018-11-28T02:59:02.317Z,69.677734
2018-11-28T02:59:22.809Z,70.996094
2018-11-28T02:59:42.389Z,69.378662
2018-11-28T03:00:01.955Z,68.164062
2018-11-28T03:00:21.664Z,68.768311
2018-11-28T03:00:41.280Z,71.905518
2018-11-28T03:01:00.830Z,68.768311
2018-11-28T03:01:20.536Z,70.385742
2018-11-28T03:01:40.152Z,71.905518
2018-11-28T03:01:59.715Z,70.892334
2018-11-28T03:02:19.255Z,71.09375
2018-11-28T03:02:38.881Z,72.509766
2018-11-28T03:02:58.430Z,73.925781
2018-11-28T03:03:17.972Z,75.042725
2018-11-28T03:03:37.497Z,75.848389
2018-11-28T03:03:57.042Z,76.153564
2018-11-28T03:04:16.578Z,76.220703
2018-11-28T03:04:36.094Z,76.422119
2018-11-28T03:04:55.623Z,75.006104
2018-11-28T03:05:15.286Z,73.791504
2018-11-28T03:05:34.798Z,73.284912
2018-11-28T03:05:54.329Z,72.277832
2018-11-28T03:06:13.894Z,72.509766
2018-11-28T03:06:33.481Z,72.613525
2018-11-28T03:06:53.005Z,72.412109
2018-11-28T03:07:13.541Z,73.925781
2018-11-28T03:07:33.102Z,74.841309
2018-11-28T03:07:53.626Z,75.140381
2018-11-28T03:08:13.163Z,73.925781
2018-11-28T03:08:32.691Z,74.633789
2018-11-28T03:08:52.221Z,75.549316
2018-11-28T03:09:11.767Z,76.45874
2018-11-28T03:09:31.288Z,75.512695
2018-11-28T03:09:50.808Z,75.20752
2018-11-28T03:10:10.354Z,75.714111
2018-11-28T03:10:29.859Z,76.220703
2018-11-28T03:10:49.383Z,75.811768
2018-11-28T03:11:09.882Z,76.220703
2018-11-28T03:11:29.458Z,75.915527
2018-11-28T03:11:49.006Z,73.99292
2018-11-28T03:12:08.501Z,73.693848
2018-11-28T03:12:28.059Z,74.499512
2018-11-28T03:12:47.586Z,75.512695
2018-11-28T03:13:07.115Z,75.311279
2018-11-28T03:13:26.644Z,73.284912
2018-11-28T03:13:46.159Z,73.016357
2018-11-28T03:14:06.665Z,74.737549
2018-11-28T03:14:26.207Z,73.693848
2018-11-28T03:14:45.713Z,73.016357
2018-11-28T03:15:05.240Z,70.690918
2018-11-28T03:15:24.761Z,71.600342
2018-11-28T03:15:44.270Z,74.029541
2018-11-28T03:16:03.823Z,73.626709
2018-11-28T03:16:23.414Z,74.029541
2018-11-28T03:16:43.941Z,75.952148
2018-11-28T03:17:03.588Z,75.140381
2018-11-28T03:17:23.847Z,74.633789
2018-11-28T03:17:43.709Z,73.724365
2018-11-28T03:18:03.773Z,74.334717
2018-11-28T03:18:23.578Z,74.334717
2018-11-28T03:18:44.202Z,75.750732
2018-11-28T03:19:03.890Z,75.646973
2018-11-28T03:19:23.784Z,75.549316
2018-11-28T03:19:43.598Z,75.646973
2018-11-28T03:20:03.501Z,75.646973
2018-11-28T03:20:23.194Z,75.341797
2018-11-28T03:20:43.005Z,74.938965
2018-11-28T03:21:02.973Z,75.952148
2018-11-28T03:21:22.797Z,75.341797
2018-11-28T03:21:42.302Z,75.952148
2018-11-28T03:22:01.823Z,74.633789
2018-11-28T03:22:21.352Z,75.341797
2018-11-28T03:22:40.912Z,75.140381
2018-11-28T03:23:00.483Z,75.952148
2018-11-28T03:23:20.013Z,75.848389
2018-11-28T03:23:39.560Z,76.35498
2018-11-28T03:23:59.093Z,76.049805
2018-11-28T03:24:18.619Z,76.721191
2018-11-28T03:24:38.160Z,76.824951
2018-11-28T03:24:57.666Z,76.019287
2018-11-28T03:25:17.229Z,76.116943
2018-11-28T03:25:36.741Z,75.811768
2018-11-28T03:25:56.232Z,76.019287
2018-11-28T03:26:15.765Z,75.811768
2018-11-28T03:26:35.334Z,76.824951
2018-11-28T03:26:54.868Z,76.220703
2018-11-28T03:27:14.445Z,77.130127
2018-11-28T03:27:33.986Z,76.928711
2018-11-28T03:27:53.524Z,76.116943
2018-11-28T03:28:13.045Z,76.928711
2018-11-28T03:28:32.607Z,77.331543
2018-11-28T03:28:52.134Z,77.429199
2018-11-28T03:29:11.729Z,77.227783
2018-11-28T03:29:31.222Z,77.026367
2018-11-28T03:29:50.734Z,76.824951
2018-11-28T03:30:10.309Z,76.623535
2018-11-28T03:30:29.852Z,76.623535
2018-11-28T03:30:50.355Z,76.928711
2018-11-28T03:31:09.915Z,77.331543
2018-11-28T03:31:29.444Z,76.721191
2018-11-28T03:31:49.010Z,75.714111
2018-11-28T03:32:08.542Z,76.318359
2018-11-28T03:32:28.099Z,75.811768
2018-11-28T03:32:47.605Z,75.915527
2018-11-28T03:33:07.121Z,76.422119
2018-11-28T03:33:26.654Z,76.928711
2018-11-28T03:33:46.182Z,75.311279
2018-11-28T03:34:05.708Z,74.804688
2018-11-28T03:34:25.242Z,74.902344
2018-11-28T03:34:45.791Z,74.603271
2018-11-28T03:35:05.411Z,75.811768
2018-11-28T03:35:24.981Z,76.519775
2018-11-28T03:35:44.593Z,76.721191
2018-11-28T03:36:04.120Z,77.331543
2018-11-28T03:36:23.751Z,77.429199
2018-11-28T03:36:43.332Z,76.623535
2018-11-28T03:37:02.918Z,76.422119
2018-11-28T03:37:23.584Z,77.227783
2018-11-28T03:37:44.145Z,75.512695
2018-11-28T03:38:03.721Z,76.318359
2018-11-28T03:38:23.327Z,76.422119
2018-11-28T03:38:42.912Z,75.714111
2018-11-28T03:39:03.471Z,76.116943
2018-11-28T03:39:23.018Z,76.519775
2018-11-28T03:39:42.587Z,76.623535
2018-11-28T03:40:02.096Z,77.026367
2018-11-28T03:40:21.692Z,77.130127
2018-11-28T03:40:41.294Z,76.928711
2018-11-28T03:41:00.868Z,76.928711
2018-11-28T03:41:20.495Z,77.429199
2018-11-28T03:41:40.122Z,77.838135
2018-11-28T03:41:59.710Z,77.429199
2018-11-28T03:42:19.226Z,76.721191
2018-11-28T03:42:38.834Z,77.429199
2018-11-28T03:42:58.378Z,77.227783
2018-11-28T03:43:18.004Z,76.928711
2018-11-28T03:43:37.560Z,75.512695
2018-11-28T03:43:57.164Z,72.88208
2018-11-28T03:44:16.687Z,73.187256
2018-11-28T03:44:36.191Z,75.408936
2018-11-28T03:44:55.681Z,76.318359
2018-11-28T03:45:15.177Z,76.519775
2018-11-28T03:45:34.705Z,78.137207
2018-11-28T03:45:55.249Z,78.137207
2018-11-28T03:46:14.739Z,77.734375
2018-11-28T03:46:34.262Z,77.331543
2018-11-28T03:46:53.842Z,76.623535
2018-11-28T03:47:13.367Z,76.116943
2018-11-28T03:47:32.899Z,74.804688
2018-11-28T03:47:52.421Z,75.20752
2018-11-28T03:48:11.919Z,76.116943
2018-11-28T03:48:31.506Z,76.623535
2018-11-28T03:48:52.030Z,74.298096
2018-11-28T03:49:11.551Z,74.603271
2018-11-28T03:49:31.066Z,74.700928
2018-11-28T03:49:50.582Z,72.680664
2018-11-28T03:50:10.091Z,73.486328
2018-11-28T03:50:30.638Z,75.10376
2018-11-28T03:50:50.161Z,76.116943